createdAt,value
2023-02-13T00:00:12.398Z,82.17
2023-02-13T00:02:39.095Z,83.73
2023-02-13T00:05:06.153Z,77.80
2023-02-13T00:07:32.859Z,79.67
2023-02-13T00:09:59.663Z,72.63
2023-02-13T00:12:26.339Z,73.63
2023-02-13T00:14:54.039Z,75.63
2023-02-13T00:17:20.808Z,82.93
2023-02-13T00:19:47.683Z,80.13
2023-02-13T00:22:16.649Z,80.07
2023-02-13T00:24:43.803Z,78.40
2023-02-13T00:27:10.652Z,85.33
2023-02-13T00:29:37.341Z,80.20
2023-02-13T00:32:04.194Z,75.47
2023-02-13T00:34:30.942Z,73.40
2023-02-13T00:36:57.653Z,87.33
2023-02-13T00:39:24.337Z,74.80
2023-02-13T00:41:51.031Z,73.10
2023-02-13T00:44:17.755Z,87.63
2023-02-13T00:46:44.518Z,77.03
2023-02-13T00:49:11.211Z,83.63
2023-02-13T00:51:37.853Z,86.10
2023-02-13T00:54:04.698Z,94.90
2023-02-13T00:56:31.360Z,73.53
2023-02-13T00:58:58.007Z,81.73
2023-02-13T01:01:25.095Z,82.53
2023-02-13T01:03:51.789Z,89.10
2023-02-13T01:06:18.481Z,95.20
2023-02-13T01:08:45.135Z,89.27
2023-02-13T01:11:11.896Z,83.53
2023-02-13T01:13:38.868Z,79.37
2023-02-13T01:16:05.870Z,93.27
2023-02-13T01:18:32.644Z,79.43
2023-02-13T01:21:06.066Z,81.90
2023-02-13T01:23:38.034Z,71.47
2023-02-13T01:26:06.887Z,71.13
2023-02-13T01:28:33.794Z,64.13
2023-02-13T01:31:01.026Z,64.40
2023-02-13T01:33:28.936Z,62.10
2023-02-13T01:35:56.209Z,57.27
2023-02-13T01:38:23.067Z,68.97
2023-02-13T01:40:52.466Z,70.20
2023-02-13T01:43:23.348Z,71.90
2023-02-13T01:45:54.611Z,74.03
2023-02-13T01:48:24.660Z,72.40
2023-02-13T01:51:20.134Z,71.30
2023-02-13T01:53:53.507Z,80.97
2023-02-13T01:56:29.179Z,87.00
2023-02-13T01:59:00.229Z,82.33
2023-02-13T02:01:28.346Z,92.33
2023-02-13T02:04:05.361Z,81.07
2023-02-13T02:06:35.664Z,92.97
2023-02-13T02:09:14.300Z,76.30
2023-02-13T02:11:52.251Z,81.23
2023-02-13T02:14:19.784Z,74.77
2023-02-13T02:16:46.591Z,72.73
2023-02-13T02:19:22.901Z,67.33
2023-02-13T02:22:07.501Z,57.50
2023-02-13T02:24:54.259Z,68.70
2023-02-13T02:27:34.685Z,59.20
2023-02-13T02:30:10.146Z,72.80
2023-02-13T02:32:44.819Z,74.50
2023-02-13T02:35:14.576Z,76.30
2023-02-13T02:38:06.917Z,82.80
2023-02-13T02:41:02.216Z,65.50
2023-02-13T02:43:54.749Z,69.47
2023-02-13T02:46:31.949Z,70.13
2023-02-13T02:49:34.046Z,71.43
2023-02-13T02:52:20.200Z,75.17
2023-02-13T02:55:22.908Z,70.97
2023-02-13T02:58:31.174Z,72.03
2023-02-13T03:01:18.881Z,74.93
2023-02-13T03:04:06.337Z,72.03
2023-02-13T03:06:51.945Z,66.27
2023-02-13T03:09:45.704Z,74.80
2023-02-13T03:12:35.975Z,79.37
2023-02-13T03:15:03.042Z,78.37
2023-02-13T03:17:48.295Z,71.17
2023-02-13T03:20:43.666Z,76.80
2023-02-13T03:23:26.099Z,65.30
2023-02-13T03:26:15.638Z,71.53
2023-02-13T03:29:20.542Z,84.60
2023-02-13T03:32:01.507Z,71.97
2023-02-13T03:34:54.072Z,74.87
2023-02-13T03:37:46.837Z,85.27
2023-02-13T03:40:22.499Z,79.43
2023-02-13T03:42:53.723Z,98.70
2023-02-13T03:45:47.453Z,83.73
2023-02-13T03:48:36.921Z,75.37
2023-02-13T03:51:05.431Z,67.00
2023-02-13T03:53:35.357Z,75.70
2023-02-13T03:56:21.500Z,75.93
2023-02-13T03:59:11.195Z,72.03
2023-02-13T04:01:39.387Z,88.87
2023-02-13T04:04:10.479Z,91.47
2023-02-13T04:06:57.694Z,99.50
2023-02-13T04:09:26.409Z,94.37
2023-02-13T04:12:24.733Z,72.37
2023-02-13T04:15:05.247Z,85.23
2023-02-13T04:17:37.570Z,71.33
2023-02-13T04:20:05.516Z,85.43
2023-02-13T04:22:32.164Z,79.73
2023-02-13T04:24:58.814Z,72.43
2023-02-13T04:27:27.888Z,70.57
2023-02-13T04:29:54.518Z,81.47
2023-02-13T04:32:21.169Z,84.30
2023-02-13T04:34:47.815Z,68.80
2023-02-13T04:37:14.438Z,87.53
2023-02-13T04:39:41.055Z,75.57
2023-02-13T04:42:07.670Z,90.63
2023-02-13T04:44:34.270Z,81.10
2023-02-13T04:47:00.949Z,96.67
2023-02-13T04:49:27.547Z,80.73
2023-02-13T04:51:54.197Z,73.00
2023-02-13T04:54:20.846Z,80.83
2023-02-13T04:56:47.519Z,90.97
2023-02-13T04:59:14.206Z,85.47
2023-02-13T05:01:40.877Z,77.60
2023-02-13T05:04:07.648Z,88.10
2023-02-13T05:06:34.248Z,87.63
2023-02-13T05:09:00.855Z,83.80
2023-02-13T05:11:27.522Z,80.60
2023-02-13T05:13:54.203Z,85.53
2023-02-13T05:16:20.879Z,103.53
2023-02-13T05:18:47.452Z,100.50
2023-02-13T05:21:32.660Z,96.90
2023-02-13T05:23:59.404Z,99.70
2023-02-13T05:26:26.043Z,106.33
2023-02-13T05:29:11.265Z,105.10
2023-02-13T05:31:38.009Z,87.13
2023-02-13T05:34:04.754Z,98.57
2023-02-13T05:36:31.407Z,96.00
2023-02-13T05:38:58.041Z,98.73
2023-02-13T05:41:24.736Z,85.87
2023-02-13T05:43:51.388Z,86.97
2023-02-13T05:46:18.325Z,84.10
2023-02-13T05:48:45.023Z,91.10
2023-02-13T05:51:11.923Z,91.20
2023-02-13T05:53:38.777Z,71.73
2023-02-13T05:56:06.799Z,97.30
2023-02-13T05:58:34.183Z,93.67
2023-02-13T06:01:01.535Z,75.40
2023-02-13T06:03:30.758Z,95.40
2023-02-13T06:05:57.728Z,96.70
2023-02-13T06:08:25.006Z,93.20
2023-02-13T06:10:52.357Z,100.07
2023-02-13T06:13:19.446Z,90.47
2023-02-13T06:15:46.260Z,109.53
2023-02-13T06:18:12.941Z,99.50
2023-02-13T06:20:39.576Z,92.90
2023-02-13T06:23:06.173Z,107.00
2023-02-13T06:25:35.038Z,103.33
2023-02-13T06:28:02.300Z,83.70
2023-02-13T06:30:29.086Z,90.33
2023-02-13T06:32:55.789Z,101.73
2023-02-13T06:35:22.548Z,98.27
2023-02-13T06:37:49.458Z,94.63
2023-02-13T06:40:16.625Z,95.90
2023-02-13T06:42:44.628Z,102.67
2023-02-13T06:45:17.625Z,103.33
2023-02-13T06:47:46.199Z,104.43
2023-02-13T06:50:14.760Z,86.93
2023-02-13T06:52:50.521Z,103.83
2023-02-13T06:55:18.042Z,99.93
2023-02-13T06:57:45.364Z,101.90
2023-02-13T07:00:14.541Z,114.10
2023-02-13T07:02:43.612Z,98.27
2023-02-13T07:05:11.629Z,94.97
2023-02-13T07:07:40.170Z,100.30
2023-02-13T07:10:09.265Z,89.67
2023-02-13T07:12:36.706Z,117.27
2023-02-13T07:15:08.016Z,94.27
2023-02-13T07:17:34.724Z,92.53
2023-02-13T07:20:01.410Z,101.37
2023-02-13T07:22:28.208Z,96.37
2023-02-13T07:25:01.562Z,122.67
2023-02-13T07:27:29.393Z,119.93
2023-02-13T07:29:57.555Z,112.57
2023-02-13T07:32:25.273Z,104.77
2023-02-13T07:35:01.294Z,112.43
2023-02-13T07:37:31.910Z,103.97
2023-02-13T07:39:58.803Z,122.70
2023-02-13T07:42:25.563Z,96.07
2023-02-13T07:44:52.785Z,116.03
2023-02-13T07:47:20.395Z,108.13
2023-02-13T07:49:50.656Z,104.10
2023-02-13T07:52:18.806Z,99.43
2023-02-13T07:54:49.124Z,90.17
2023-02-13T07:57:25.861Z,81.40
2023-02-13T07:59:55.439Z,96.13
2023-02-13T08:02:27.659Z,85.43
2023-02-13T08:04:55.089Z,87.37
2023-02-13T08:07:23.275Z,95.43
2023-02-13T08:10:11.923Z,88.57
2023-02-13T08:12:38.967Z,82.07
2023-02-13T08:15:08.387Z,68.40
2023-02-13T08:17:40.846Z,82.97
2023-02-13T08:20:09.700Z,77.43
2023-02-13T08:22:38.196Z,79.13
2023-02-13T08:25:06.226Z,77.63
2023-02-13T08:27:33.612Z,81.07
2023-02-13T08:30:01.864Z,85.20
2023-02-13T08:32:30.246Z,83.77
2023-02-13T08:34:56.997Z,87.17
2023-02-13T08:37:24.563Z,76.60
2023-02-13T08:39:51.422Z,73.43
2023-02-13T08:45:20.770Z,90.73
2023-02-13T08:47:47.544Z,76.47
2023-02-13T08:50:14.445Z,93.63
2023-02-13T08:52:41.637Z,76.60
2023-02-13T08:55:08.784Z,69.20
2023-02-13T08:57:35.622Z,75.60
2023-02-13T09:00:02.895Z,80.57
2023-02-13T09:02:29.728Z,70.27
2023-02-13T09:07:56.532Z,66.77
2023-02-13T09:10:23.316Z,61.57
2023-02-13T09:12:53.655Z,54.37
2023-02-13T09:15:20.576Z,30.03
2023-02-13T09:17:47.293Z,32.70
2023-02-13T09:20:14.512Z,26.30
2023-02-13T09:22:41.641Z,25.97
2023-02-13T09:25:09.156Z,24.00
2023-02-13T09:27:37.282Z,26.10
2023-02-13T09:30:04.135Z,23.90
2023-02-13T09:32:30.993Z,23.70
2023-02-13T09:34:57.671Z,26.77
2023-02-13T09:37:24.350Z,32.00
2023-02-13T09:39:51.066Z,31.63
2023-02-13T09:42:28.962Z,32.13
2023-02-13T09:45:02.680Z,32.90
2023-02-13T09:47:36.370Z,30.67
2023-02-13T09:50:12.128Z,32.13
2023-02-13T09:52:39.714Z,28.73
2023-02-13T09:55:24.114Z,29.77
2023-02-13T09:58:21.239Z,25.47
2023-02-13T10:00:59.001Z,25.77
2023-02-13T10:03:29.953Z,27.43
2023-02-13T10:06:09.085Z,33.27
2023-02-13T10:08:57.671Z,36.17
2023-02-13T10:12:02.019Z,24.63
2023-02-13T10:14:36.090Z,20.53
2023-02-13T10:17:11.028Z,21.30
2023-02-13T10:19:42.979Z,20.60
2023-02-13T10:22:09.568Z,20.40
2023-02-13T10:24:54.802Z,21.70
2023-02-13T10:27:25.871Z,20.80
2023-02-13T10:30:04.859Z,21.57
2023-02-13T10:32:48.874Z,21.17
2023-02-13T10:35:30.799Z,21.90
2023-02-13T10:37:59.400Z,21.37
2023-02-13T10:40:37.986Z,22.17
2023-02-13T10:43:09.980Z,21.87
2023-02-13T10:45:46.678Z,19.70
2023-02-13T10:48:38.022Z,20.33
2023-02-13T10:51:08.318Z,20.63
2023-02-13T10:54:00.218Z,22.47
2023-02-13T10:56:46.302Z,20.77
2023-02-13T10:59:31.223Z,21.13
2023-02-13T11:02:24.452Z,21.10
2023-02-13T11:05:31.374Z,21.70
2023-02-13T11:07:59.081Z,20.40
2023-02-13T11:10:27.007Z,21.50
2023-02-13T11:12:54.134Z,22.43
2023-02-13T11:15:32.203Z,20.03
2023-02-13T11:18:03.751Z,19.83
2023-02-13T11:20:36.760Z,19.53
2023-02-13T11:23:26.704Z,19.97
2023-02-13T11:26:03.658Z,20.40
2023-02-13T11:28:34.115Z,19.87
2023-02-13T11:31:23.119Z,19.53
2023-02-13T11:33:49.871Z,20.00
2023-02-13T11:36:27.894Z,19.00
2023-02-13T11:39:22.736Z,19.57
2023-02-13T11:41:52.718Z,18.10
2023-02-13T11:44:27.805Z,20.03
2023-02-13T11:46:57.230Z,19.03
2023-02-13T11:49:29.558Z,19.43
2023-02-13T11:52:00.146Z,18.90
2023-02-13T11:54:29.594Z,18.47
2023-02-13T11:57:04.674Z,19.23
2023-02-13T11:59:39.276Z,18.73
2023-02-13T12:02:25.587Z,18.37
2023-02-13T12:04:55.391Z,17.40
2023-02-13T12:07:30.932Z,17.73
2023-02-13T12:10:08.499Z,18.37
2023-02-13T12:12:44.654Z,17.10
2023-02-13T12:15:18.763Z,19.93
2023-02-13T12:17:49.522Z,18.27
2023-02-13T12:20:17.304Z,17.20
2023-02-13T12:23:06.317Z,17.80
2023-02-13T12:25:57.212Z,17.20
2023-02-13T12:28:40.116Z,15.97
2023-02-13T12:31:24.647Z,17.17
2023-02-13T12:34:35.457Z,15.77
2023-02-13T12:37:30.143Z,16.37
2023-02-13T12:40:25.436Z,17.23
2023-02-13T12:43:30.136Z,18.80
2023-02-13T12:46:20.430Z,16.50
2023-02-13T12:49:09.325Z,16.70
2023-02-13T12:52:13.895Z,16.80
2023-02-13T12:54:48.605Z,17.10
2023-02-13T12:57:42.101Z,16.37
2023-02-13T13:00:42.117Z,17.27
2023-02-13T13:03:40.541Z,17.73
2023-02-13T13:06:32.985Z,16.40
2023-02-13T13:09:19.524Z,15.93
2023-02-13T13:12:15.798Z,15.50
2023-02-13T13:14:45.347Z,15.60
2023-02-13T13:17:32.834Z,15.70
2023-02-13T13:20:15.411Z,15.53
2023-02-13T13:23:10.461Z,16.00
2023-02-13T13:26:01.215Z,15.70
2023-02-13T13:28:55.892Z,16.43
2023-02-13T13:31:26.795Z,15.53
2023-02-13T13:34:00.958Z,16.47
2023-02-13T13:36:45.043Z,15.20
2023-02-13T13:39:42.647Z,15.60
2023-02-13T13:42:44.668Z,15.20
2023-02-13T13:45:47.111Z,15.60
2023-02-13T13:49:03.263Z,15.97
2023-02-13T13:51:31.215Z,15.33
2023-02-13T13:54:09.764Z,15.67
2023-02-13T13:56:57.164Z,14.90
2023-02-13T13:59:39.769Z,15.10
2023-02-13T14:02:55.074Z,15.40
2023-02-13T14:05:27.762Z,13.83
2023-02-13T14:08:01.636Z,14.27
2023-02-13T14:10:31.324Z,13.70
2023-02-13T14:13:07.947Z,14.83
2023-02-13T14:15:35.804Z,15.67
2023-02-13T14:18:14.910Z,15.57
2023-02-13T14:20:51.201Z,14.93
2023-02-13T14:23:27.048Z,16.10
2023-02-13T14:26:17.816Z,15.73
2023-02-13T14:28:51.412Z,24.30
2023-02-13T14:31:39.786Z,13.97
2023-02-13T14:34:23.614Z,13.13
2023-02-13T14:37:20.565Z,14.23
2023-02-13T14:40:18.624Z,13.90
2023-02-13T14:42:54.862Z,13.10
2023-02-13T14:45:33.527Z,13.60
2023-02-13T14:48:07.099Z,14.00
2023-02-13T14:50:55.609Z,13.40
2023-02-13T14:53:30.028Z,12.87
2023-02-13T14:56:07.879Z,13.20
2023-02-13T14:58:41.762Z,13.13
2023-02-13T15:01:30.061Z,13.00
2023-02-13T15:04:22.272Z,13.10
2023-02-13T15:06:50.547Z,12.90
2023-02-13T15:09:29.144Z,12.87
2023-02-13T15:11:56.189Z,12.90
2023-02-13T15:14:33.539Z,12.30
2023-02-13T15:17:13.210Z,12.30
2023-02-13T15:19:45.652Z,12.53
2023-02-13T15:22:20.715Z,12.17
2023-02-13T15:24:53.729Z,11.70
2023-02-13T15:27:35.709Z,11.80
2023-02-13T15:30:31.652Z,11.60
2023-02-13T15:33:05.027Z,12.00
2023-02-13T15:35:34.887Z,12.37
2023-02-13T15:38:28.080Z,11.67
2023-02-13T15:41:10.409Z,11.60
2023-02-13T15:43:42.105Z,11.73
2023-02-13T15:46:20.358Z,12.37
2023-02-13T15:48:47.556Z,12.07
2023-02-13T15:51:22.560Z,13.23
2023-02-13T15:53:53.757Z,12.70
2023-02-13T15:56:22.573Z,14.10
2023-02-13T15:58:50.473Z,12.40
2023-02-13T16:01:17.523Z,12.47
2023-02-13T16:03:48.137Z,12.70
2023-02-13T16:06:17.598Z,12.50
2023-02-13T16:08:55.736Z,12.50
2023-02-13T16:11:32.251Z,12.63
2023-02-13T16:14:27.272Z,12.50
2023-02-13T16:17:04.551Z,12.57
2023-02-13T16:19:38.169Z,16.70
2023-02-13T16:22:16.181Z,12.70
2023-02-13T16:24:50.877Z,11.77
2023-02-13T16:27:20.368Z,12.37
2023-02-13T16:29:56.109Z,13.40
2023-02-13T16:32:34.899Z,12.30
2023-02-13T16:35:28.225Z,13.37
2023-02-13T16:38:02.164Z,13.00
2023-02-13T16:40:33.180Z,13.20
2023-02-13T16:43:34.701Z,12.70
2023-02-13T16:46:21.025Z,13.50
2023-02-13T16:48:57.030Z,13.33
2023-02-13T16:51:35.211Z,13.17
2023-02-13T16:54:27.733Z,12.90
2023-02-13T16:57:02.294Z,13.40
2023-02-13T16:59:48.406Z,13.73
2023-02-13T17:02:32.201Z,13.27
2023-02-13T17:05:15.389Z,13.53
2023-02-13T17:07:44.191Z,13.40
2023-02-13T17:10:30.940Z,13.40
2023-02-13T17:13:25.416Z,13.00
2023-02-13T17:15:52.204Z,13.70
2023-02-13T17:18:18.856Z,13.20
2023-02-13T17:20:45.681Z,13.47
2023-02-13T17:23:20.136Z,13.47
2023-02-13T17:25:48.016Z,13.13
2023-02-13T17:28:26.745Z,12.87
2023-02-13T17:30:56.554Z,12.93
2023-02-13T17:33:31.880Z,12.40
2023-02-13T17:35:58.601Z,12.77
2023-02-13T17:38:25.489Z,13.37
2023-02-13T17:40:52.331Z,13.07
2023-02-13T17:43:20.521Z,13.20
2023-02-13T17:45:49.705Z,12.60
2023-02-13T17:48:17.069Z,13.37
2023-02-13T17:50:43.862Z,14.30
2023-02-13T17:53:26.792Z,13.80
2023-02-13T17:55:53.617Z,15.07
2023-02-13T17:58:20.338Z,13.23
2023-02-13T18:00:47.280Z,14.33
2023-02-13T18:03:14.044Z,14.10
2023-02-13T18:05:41.072Z,14.67
2023-02-13T18:08:08.442Z,15.20
2023-02-13T18:10:36.625Z,13.73
2023-02-13T18:13:04.479Z,14.00
2023-02-13T18:15:39.033Z,14.80
2023-02-13T18:18:06.177Z,13.87
2023-02-13T18:20:33.047Z,13.37
2023-02-13T18:22:59.775Z,14.70
2023-02-13T18:25:26.833Z,13.37
2023-02-13T18:27:55.169Z,13.97
2023-02-13T18:30:22.031Z,14.60
2023-02-13T18:32:54.388Z,14.17
2023-02-13T18:35:22.211Z,26.00
2023-02-13T18:37:49.012Z,14.07
2023-02-13T18:40:17.133Z,15.17
2023-02-13T18:42:44.641Z,14.80
2023-02-13T18:45:12.099Z,14.70
2023-02-13T18:47:39.002Z,14.63
2023-02-13T18:50:06.248Z,14.13
2023-02-13T18:52:34.398Z,13.80
2023-02-13T18:55:01.080Z,13.93
2023-02-13T18:57:27.789Z,13.30
2023-02-13T18:59:54.433Z,14.67
2023-02-13T19:02:21.111Z,14.43
2023-02-13T19:04:47.749Z,14.23
2023-02-13T19:07:14.420Z,13.97
2023-02-13T19:09:41.101Z,14.97
2023-02-13T19:12:08.224Z,19.60
2023-02-13T19:14:35.042Z,14.63
2023-02-13T19:17:02.256Z,17.33
2023-02-13T19:19:29.342Z,15.87
2023-02-13T19:21:56.064Z,15.30
2023-02-13T19:24:22.747Z,15.57
2023-02-13T19:26:49.414Z,14.37
2023-02-13T19:29:16.030Z,14.73
2023-02-13T19:31:42.968Z,14.50
2023-02-13T19:34:09.703Z,15.20
2023-02-13T19:36:36.446Z,15.30
2023-02-13T19:39:05.427Z,14.10
2023-02-13T19:41:33.008Z,13.97
2023-02-13T19:44:00.969Z,13.93
2023-02-13T19:46:31.664Z,14.50
2023-02-13T19:48:59.069Z,14.57
2023-02-13T19:51:28.312Z,14.30
2023-02-13T19:54:00.158Z,14.40
2023-02-13T19:56:28.469Z,14.60
2023-02-13T19:58:55.821Z,13.53
2023-02-13T20:01:24.333Z,12.50
2023-02-13T20:03:51.259Z,13.50
2023-02-13T20:06:20.647Z,18.30
2023-02-13T20:08:47.880Z,12.50
2023-02-13T20:11:16.862Z,12.87
2023-02-13T20:13:43.781Z,13.77
2023-02-13T20:16:13.321Z,12.43
2023-02-13T20:18:40.956Z,15.00
2023-02-13T20:21:09.381Z,12.50
2023-02-13T20:23:36.367Z,13.87
2023-02-13T20:26:13.558Z,12.80
2023-02-13T20:28:41.684Z,14.37
2023-02-13T20:31:10.890Z,13.57
2023-02-13T20:33:38.871Z,12.37
2023-02-13T20:36:16.053Z,11.07
2023-02-13T20:38:43.335Z,10.77
2023-02-13T20:41:12.222Z,12.77
2023-02-13T20:43:39.033Z,14.30
2023-02-13T20:46:06.670Z,13.57
2023-02-13T20:48:36.214Z,13.07
2023-02-13T20:51:05.343Z,11.63
2023-02-13T20:53:32.525Z,12.13
2023-02-13T20:56:07.596Z,11.03
2023-02-13T20:58:34.755Z,10.07
2023-02-13T21:01:01.945Z,12.67
2023-02-13T21:03:28.979Z,11.67
2023-02-13T21:05:55.644Z,14.60
2023-02-13T21:08:22.307Z,11.67
2023-02-13T21:10:49.000Z,14.17
2023-02-13T21:13:15.671Z,12.40
2023-02-13T21:15:44.687Z,12.50
2023-02-13T21:18:11.317Z,15.90
2023-02-13T21:20:38.030Z,14.83
2023-02-13T21:23:05.348Z,13.07
2023-02-13T21:25:33.360Z,14.23
2023-02-13T21:28:00.079Z,12.33
2023-02-13T21:30:27.062Z,12.90
2023-02-13T21:32:53.825Z,13.57
2023-02-13T21:35:20.545Z,15.27
2023-02-13T21:37:47.205Z,16.27
2023-02-13T21:40:13.869Z,12.00
2023-02-13T21:42:40.490Z,14.20
2023-02-13T21:45:07.422Z,13.83
2023-02-13T21:47:34.431Z,17.43
2023-02-13T21:50:01.184Z,12.83
2023-02-13T21:52:27.959Z,11.13
2023-02-13T21:54:54.774Z,15.83
2023-02-13T21:57:21.420Z,12.47
2023-02-13T21:59:48.523Z,18.53
2023-02-13T22:02:15.307Z,16.83
2023-02-13T22:04:42.457Z,19.20
2023-02-13T22:07:09.103Z,16.53
2023-02-13T22:09:35.837Z,16.60
2023-02-13T22:12:04.100Z,14.40
2023-02-13T22:14:30.778Z,18.17
2023-02-13T22:16:57.534Z,17.70
2023-02-13T22:19:24.306Z,14.73
2023-02-13T22:21:51.220Z,16.33
2023-02-13T22:24:17.923Z,12.47
2023-02-13T22:26:45.270Z,13.10
2023-02-13T22:29:14.942Z,14.13
2023-02-13T22:31:42.201Z,13.10
2023-02-13T22:34:11.873Z,14.40
2023-02-13T22:36:38.977Z,17.67
2023-02-13T22:39:06.817Z,14.37
2023-02-13T22:41:33.723Z,15.50
2023-02-13T22:44:00.361Z,13.00
2023-02-13T22:46:33.038Z,15.63
2023-02-13T22:49:00.191Z,17.10
2023-02-13T22:51:30.323Z,16.07
2023-02-13T22:53:58.414Z,18.07
2023-02-13T22:56:31.784Z,17.73
2023-02-13T22:58:59.410Z,15.73
2023-02-13T23:01:27.630Z,16.00
2023-02-13T23:03:55.231Z,15.57
2023-02-13T23:06:22.486Z,16.03
2023-02-13T23:08:52.619Z,17.83
2023-02-13T23:11:40.278Z,19.17
2023-02-13T23:14:07.431Z,15.80
2023-02-13T23:16:54.080Z,16.53
2023-02-13T23:19:21.405Z,14.40
2023-02-13T23:21:48.570Z,21.63
2023-02-13T23:24:15.394Z,18.07
2023-02-13T23:26:42.125Z,16.93
2023-02-13T23:29:09.480Z,16.83
2023-02-13T23:31:36.387Z,17.83
2023-02-13T23:34:03.313Z,16.23
2023-02-13T23:36:29.949Z,16.50
2023-02-13T23:38:56.587Z,15.83
2023-02-13T23:41:23.213Z,16.50
2023-02-13T23:43:49.832Z,16.63
2023-02-13T23:46:16.513Z,14.47
2023-02-13T23:48:43.245Z,17.40
2023-02-13T23:51:09.860Z,14.40
2023-02-13T23:53:36.754Z,16.67
2023-02-13T23:56:04.560Z,17.13
2023-02-13T23:58:31.326Z,15.23
